ASA622 KSAN-KSEA
Flight info
| Callsign | ASA622 |
|---|---|
| Flight time | 2h 28m |
| Altitude | 38000 |
| Route | PADRZ2 EHF SHIMR LKV HAWKZ8 |
| Aircraft | B738/M-SDE2E3FGHIRWXY/LB1 |
Departure
| Time | 2026-04-22 19:09 |
|---|---|
| Airport | San Diego International Airport (KSAN) |
Arrival
| Time | 2026-04-22 21:37 |
|---|---|
| Airport | Seattle–Tacoma International Airport (KSEA) |
| Time | Latitude | Longitude | Altitude | Speed | Heading |
|---|---|---|---|---|---|
| 2026-04-22 18:40 | 32.73307 | -117.20068 | 20 ft | 0 kts | 276° |
| 2026-04-22 18:58 | 32.73306 | -117.20055 | 29 ft | 4 kts | 277° |
| 2026-04-22 18:58 | 32.73301 | -117.20024 | 31 ft | 4 kts | 297° |
| 2026-04-22 18:58 | 32.73290 | -117.20011 | 21 ft | 2 kts | 18° |
| 2026-04-22 18:58 | 32.73279 | -117.20014 | 22 ft | 2 kts | 16° |
| 2026-04-22 18:59 | 32.73277 | -117.20015 | 22 ft | 0 kts | 17° |
| 2026-04-22 19:02 | 32.73278 | -117.20014 | 20 ft | 1 kts | 17° |
| 2026-04-22 19:02 | 32.73302 | -117.20005 | 22 ft | 9 kts | 20° |
| 2026-04-22 19:02 | 32.73344 | -117.19986 | 23 ft | 10 kts | 21° |
| 2026-04-22 19:02 | 32.73414 | -117.19964 | 21 ft | 10 kts | 12° |
| 2026-04-22 19:03 | 32.73475 | -117.19927 | 23 ft | 10 kts | 65° |
| 2026-04-22 19:03 | 32.73457 | -117.19803 | 25 ft | 19 kts | 106° |
| 2026-04-22 19:03 | 32.73429 | -117.19687 | 24 ft | 24 kts | 106° |
| 2026-04-22 19:03 | 32.73383 | -117.19494 | 24 ft | 24 kts | 105° |
| 2026-04-22 19:04 | 32.73339 | -117.19309 | 19 ft | 23 kts | 105° |
| 2026-04-22 19:04 | 32.73294 | -117.19131 | 20 ft | 22 kts | 106° |
| 2026-04-22 19:04 | 32.73252 | -117.18958 | 21 ft | 21 kts | 106° |
| 2026-04-22 19:04 | 32.73211 | -117.18789 | 24 ft | 21 kts | 105° |
| 2026-04-22 19:05 | 32.73172 | -117.18626 | 23 ft | 20 kts | 106° |
| 2026-04-22 19:05 | 32.73134 | -117.18467 | 18 ft | 20 kts | 105° |
| 2026-04-22 19:05 | 32.73096 | -117.18314 | 19 ft | 19 kts | 107° |
| 2026-04-22 19:05 | 32.73060 | -117.18166 | 16 ft | 18 kts | 105° |
| 2026-04-22 19:06 | 32.73026 | -117.18025 | 16 ft | 18 kts | 107° |
| 2026-04-22 19:06 | 32.72991 | -117.17887 | 14 ft | 17 kts | 106° |
| 2026-04-22 19:06 | 32.72959 | -117.17754 | 13 ft | 16 kts | 105° |
| 2026-04-22 19:07 | 32.73032 | -117.17627 | 16 ft | 9 kts | 288° |
| 2026-04-22 19:07 | 32.73033 | -117.17630 | 16 ft | 0 kts | 287° |
| 2026-04-22 19:08 | 32.73035 | -117.17637 | 17 ft | 5 kts | 287° |
| 2026-04-22 19:08 | 32.73091 | -117.17865 | 17 ft | 63 kts | 286° |
| 2026-04-22 19:08 | 32.73273 | -117.18629 | 20 ft | 126 kts | 286° |
| 2026-04-22 19:08 | 32.73564 | -117.19775 | 267 ft | 155 kts | 288° |
| 2026-04-22 19:09 | 32.73858 | -117.21037 | 917 ft | 164 kts | 287° |
| 2026-04-22 19:09 | 32.74354 | -117.22277 | 1475 ft | 168 kts | 307° |
| 2026-04-22 19:09 | 32.75085 | -117.23404 | 1911 ft | 187 kts | 305° |
| 2026-04-22 19:09 | 32.75876 | -117.24754 | 2128 ft | 211 kts | 304° |
| 2026-04-22 19:10 | 32.76737 | -117.26250 | 2402 ft | 231 kts | 304° |
| 2026-04-22 19:10 | 32.77674 | -117.27882 | 2826 ft | 248 kts | 304° |
| 2026-04-22 19:10 | 32.78668 | -117.29615 | 3489 ft | 257 kts | 303° |
| 2026-04-22 19:10 | 32.79667 | -117.31358 | 4458 ft | 252 kts | 304° |
| 2026-04-22 19:11 | 32.80701 | -117.33051 | 5298 ft | 254 kts | 307° |
| 2026-04-22 19:11 | 32.81785 | -117.34724 | 6080 ft | 256 kts | 308° |
| 2026-04-22 19:11 | 32.82891 | -117.36419 | 6797 ft | 262 kts | 307° |
| 2026-04-22 19:11 | 32.84015 | -117.38146 | 7562 ft | 265 kts | 307° |
| 2026-04-22 19:12 | 32.85146 | -117.39889 | 8387 ft | 268 kts | 306° |
| 2026-04-22 19:12 | 32.86288 | -117.41654 | 9211 ft | 271 kts | 306° |
| 2026-04-22 19:12 | 32.87425 | -117.43417 | 10068 ft | 273 kts | 306° |
| 2026-04-22 19:12 | 32.88613 | -117.45260 | 10523 ft | 291 kts | 305° |
| 2026-04-22 19:13 | 32.89900 | -117.47263 | 10756 ft | 315 kts | 305° |
| 2026-04-22 19:13 | 32.91247 | -117.49358 | 11386 ft | 322 kts | 305° |
| 2026-04-22 19:13 | 32.92616 | -117.51485 | 12182 ft | 324 kts | 305° |
| 2026-04-22 19:13 | 32.93987 | -117.53618 | 13039 ft | 325 kts | 305° |
| 2026-04-22 19:14 | 32.95368 | -117.55768 | 13868 ft | 328 kts | 304° |
| 2026-04-22 19:14 | 32.96763 | -117.57943 | 14533 ft | 332 kts | 304° |
| 2026-04-22 19:14 | 32.98163 | -117.60129 | 14902 ft | 334 kts | 304° |
| 2026-04-22 19:14 | 32.99587 | -117.62353 | 15516 ft | 340 kts | 304° |
| 2026-04-22 19:15 | 33.01009 | -117.64574 | 16364 ft | 341 kts | 303° |
| 2026-04-22 19:15 | 33.02445 | -117.66817 | 17227 ft | 341 kts | 303° |
| 2026-04-22 19:15 | 33.03894 | -117.69085 | 17954 ft | 346 kts | 303° |
| 2026-04-22 19:15 | 33.05367 | -117.71391 | 18640 ft | 351 kts | 302° |
| 2026-04-22 19:16 | 33.06933 | -117.73657 | 19284 ft | 359 kts | 310° |
| 2026-04-22 19:16 | 33.08825 | -117.75648 | 19968 ft | 365 kts | 314° |
| 2026-04-22 19:16 | 33.10803 | -117.77579 | 20606 ft | 369 kts | 315° |
| 2026-04-22 19:16 | 33.12803 | -117.79535 | 21230 ft | 372 kts | 314° |
| 2026-04-22 19:17 | 33.14799 | -117.81524 | 21846 ft | 376 kts | 314° |
| 2026-04-22 19:17 | 33.16775 | -117.83525 | 22450 ft | 379 kts | 313° |
| 2026-04-22 19:17 | 33.18792 | -117.85581 | 23049 ft | 383 kts | 313° |
| 2026-04-22 19:17 | 33.20841 | -117.87646 | 23656 ft | 387 kts | 314° |
| 2026-04-22 19:18 | 33.22934 | -117.89699 | 24166 ft | 391 kts | 314° |
| 2026-04-22 19:18 | 33.25051 | -117.91752 | 24715 ft | 392 kts | 314° |
| 2026-04-22 19:18 | 33.27175 | -117.93809 | 25275 ft | 393 kts | 314° |
| 2026-04-22 19:18 | 33.29297 | -117.95869 | 25805 ft | 394 kts | 314° |
| 2026-04-22 19:19 | 33.31402 | -117.97918 | 26309 ft | 396 kts | 314° |
| 2026-04-22 19:19 | 33.33540 | -118.00006 | 26798 ft | 398 kts | 314° |
| 2026-04-22 19:19 | 33.35691 | -118.02109 | 27296 ft | 400 kts | 314° |
| 2026-04-22 19:19 | 33.37846 | -118.04219 | 27761 ft | 401 kts | 314° |
| 2026-04-22 19:20 | 33.40020 | -118.06350 | 28144 ft | 406 kts | 314° |
| 2026-04-22 19:20 | 33.42214 | -118.08503 | 28568 ft | 409 kts | 314° |
| 2026-04-22 19:20 | 33.44413 | -118.10658 | 29120 ft | 408 kts | 314° |
| 2026-04-22 19:20 | 33.46613 | -118.12817 | 29592 ft | 410 kts | 314° |
| 2026-04-22 19:21 | 33.48828 | -118.14993 | 29993 ft | 412 kts | 314° |
| 2026-04-22 19:21 | 33.51061 | -118.17190 | 30358 ft | 415 kts | 314° |
| 2026-04-22 19:21 | 33.53265 | -118.19358 | 30705 ft | 416 kts | 313° |
| 2026-04-22 19:21 | 33.55504 | -118.21560 | 31100 ft | 416 kts | 313° |
| 2026-04-22 19:22 | 33.57781 | -118.23709 | 31502 ft | 421 kts | 319° |
| 2026-04-22 19:22 | 33.60449 | -118.25337 | 31772 ft | 435 kts | 328° |
| 2026-04-22 19:22 | 33.63218 | -118.26791 | 32206 ft | 433 kts | 327° |
| 2026-04-22 19:22 | 33.65960 | -118.28245 | 32764 ft | 428 kts | 326° |
| 2026-04-22 19:23 | 33.68660 | -118.29706 | 33309 ft | 423 kts | 326° |
| 2026-04-22 19:23 | 33.71331 | -118.31174 | 33783 ft | 421 kts | 325° |
| 2026-04-22 19:23 | 33.73985 | -118.32642 | 34201 ft | 419 kts | 324° |
| 2026-04-22 19:23 | 33.76609 | -118.34093 | 34485 ft | 420 kts | 325° |
| 2026-04-22 19:24 | 33.79293 | -118.35490 | 34921 ft | 419 kts | 327° |
| 2026-04-22 19:24 | 33.81987 | -118.36830 | 35303 ft | 418 kts | 327° |
| 2026-04-22 19:24 | 33.84666 | -118.38151 | 35709 ft | 414 kts | 326° |
| 2026-04-22 19:24 | 33.87324 | -118.39469 | 36124 ft | 411 kts | 326° |
| 2026-04-22 19:25 | 33.89962 | -118.40792 | 36475 ft | 409 kts | 326° |
| 2026-04-22 19:25 | 33.92582 | -118.42116 | 36825 ft | 408 kts | 325° |
| 2026-04-22 19:25 | 33.95192 | -118.43438 | 37194 ft | 405 kts | 325° |
| 2026-04-22 19:25 | 33.97783 | -118.44749 | 37583 ft | 403 kts | 324° |
| 2026-04-22 19:26 | 34.00398 | -118.45990 | 37970 ft | 410 kts | 331° |
| 2026-04-22 19:26 | 34.03292 | -118.46608 | 38216 ft | 428 kts | 340° |
| 2026-04-22 19:26 | 34.06227 | -118.47030 | 38195 ft | 433 kts | 340° |
| 2026-04-22 19:27 | 34.12223 | -118.47870 | 38193 ft | 433 kts | 340° |
| 2026-04-22 19:27 | 34.18157 | -118.48733 | 38178 ft | 425 kts | 339° |
| 2026-04-22 19:28 | 34.24031 | -118.49629 | 38186 ft | 426 kts | 339° |
| 2026-04-22 19:28 | 34.29911 | -118.50540 | 38216 ft | 426 kts | 339° |
| 2026-04-22 19:29 | 34.35788 | -118.51451 | 38229 ft | 425 kts | 339° |
| 2026-04-22 19:29 | 34.41645 | -118.52355 | 38203 ft | 427 kts | 339° |
| 2026-04-22 19:30 | 34.46568 | -118.53120 | 38168 ft | 429 kts | 340° |
| 2026-04-22 19:30 | 34.53515 | -118.54195 | 38170 ft | 432 kts | 340° |
| 2026-04-22 19:31 | 34.59485 | -118.55122 | 38163 ft | 433 kts | 340° |
| 2026-04-22 19:31 | 34.65439 | -118.56044 | 38210 ft | 434 kts | 340° |
| 2026-04-22 19:32 | 34.71443 | -118.56968 | 38156 ft | 435 kts | 340° |
| 2026-04-22 19:32 | 34.77434 | -118.57906 | 38160 ft | 433 kts | 340° |
| 2026-04-22 19:33 | 34.83399 | -118.58842 | 38180 ft | 431 kts | 340° |
| 2026-04-22 19:33 | 34.89349 | -118.59772 | 38194 ft | 429 kts | 340° |
| 2026-04-22 19:34 | 34.95268 | -118.60699 | 38212 ft | 428 kts | 340° |
| 2026-04-22 19:34 | 35.00975 | -118.62016 | 38187 ft | 398 kts | 322° |
| 2026-04-22 19:34 | 35.03335 | -118.63638 | 38166 ft | 381 kts | 312° |
| 2026-04-22 19:35 | 35.05390 | -118.65633 | 38228 ft | 376 kts | 310° |
| 2026-04-22 19:35 | 35.08731 | -118.69074 | 38226 ft | 381 kts | 309° |
| 2026-04-22 19:36 | 35.13522 | -118.74028 | 38202 ft | 389 kts | 310° |
| 2026-04-22 19:36 | 35.17685 | -118.78273 | 38219 ft | 391 kts | 310° |
| 2026-04-22 19:37 | 35.21871 | -118.82524 | 38231 ft | 391 kts | 310° |
| 2026-04-22 19:37 | 35.26035 | -118.86754 | 38251 ft | 391 kts | 310° |
| 2026-04-22 19:38 | 35.30211 | -118.91005 | 38239 ft | 390 kts | 310° |
| 2026-04-22 19:38 | 35.34378 | -118.95253 | 38236 ft | 388 kts | 310° |
| 2026-04-22 19:39 | 35.38521 | -118.99482 | 38235 ft | 386 kts | 309° |
| 2026-04-22 19:39 | 35.42621 | -119.03675 | 38268 ft | 385 kts | 309° |
| 2026-04-22 19:40 | 35.46735 | -119.07887 | 38238 ft | 385 kts | 310° |
| 2026-04-22 19:40 | 35.49001 | -119.09753 | 38231 ft | 401 kts | 322° |
| 2026-04-22 19:40 | 35.51667 | -119.10986 | 38248 ft | 415 kts | 330° |
| 2026-04-22 19:41 | 35.57244 | -119.12928 | 38239 ft | 417 kts | 332° |
| 2026-04-22 19:41 | 35.62813 | -119.14785 | 38291 ft | 417 kts | 332° |
| 2026-04-22 19:42 | 35.68406 | -119.16702 | 38255 ft | 416 kts | 332° |
| 2026-04-22 19:42 | 35.73981 | -119.18652 | 38237 ft | 416 kts | 331° |
| 2026-04-22 19:43 | 35.82284 | -119.21582 | 38271 ft | 415 kts | 331° |
| 2026-04-22 19:43 | 35.87846 | -119.23551 | 38257 ft | 415 kts | 331° |
| 2026-04-22 19:44 | 35.93401 | -119.25518 | 38260 ft | 415 kts | 331° |
| 2026-04-22 19:44 | 35.98961 | -119.27491 | 38248 ft | 415 kts | 331° |
| 2026-04-22 19:45 | 36.04511 | -119.29462 | 38266 ft | 416 kts | 332° |
| 2026-04-22 19:45 | 36.10074 | -119.31442 | 38254 ft | 415 kts | 332° |
| 2026-04-22 19:46 | 36.15591 | -119.33406 | 38256 ft | 415 kts | 332° |
| 2026-04-22 19:46 | 36.21142 | -119.35386 | 38277 ft | 414 kts | 332° |
| 2026-04-22 19:47 | 36.26680 | -119.37365 | 38266 ft | 414 kts | 332° |
| 2026-04-22 19:47 | 36.32227 | -119.39350 | 38257 ft | 414 kts | 332° |
| 2026-04-22 19:48 | 36.37730 | -119.41323 | 38260 ft | 414 kts | 331° |
| 2026-04-22 19:48 | 36.43268 | -119.43311 | 38286 ft | 415 kts | 332° |
| 2026-04-22 19:49 | 36.48828 | -119.45311 | 38262 ft | 416 kts | 332° |
| 2026-04-22 19:49 | 36.54403 | -119.47318 | 38249 ft | 417 kts | 332° |
| 2026-04-22 19:50 | 36.59974 | -119.49325 | 38248 ft | 417 kts | 332° |
| 2026-04-22 19:50 | 36.65511 | -119.51325 | 38260 ft | 417 kts | 332° |
| 2026-04-22 19:51 | 36.71098 | -119.53344 | 38253 ft | 417 kts | 332° |
| 2026-04-22 19:51 | 36.76683 | -119.55366 | 38259 ft | 417 kts | 332° |
| 2026-04-22 19:52 | 36.81318 | -119.57047 | 38253 ft | 417 kts | 332° |
| 2026-04-22 19:52 | 36.86901 | -119.59074 | 38254 ft | 417 kts | 332° |
| 2026-04-22 19:53 | 36.92488 | -119.61106 | 38254 ft | 417 kts | 332° |
| 2026-04-22 19:53 | 36.98032 | -119.63126 | 38250 ft | 417 kts | 332° |
| 2026-04-22 19:54 | 37.03624 | -119.65168 | 38263 ft | 419 kts | 332° |
| 2026-04-22 19:54 | 37.09231 | -119.67217 | 38253 ft | 419 kts | 332° |
| 2026-04-22 19:55 | 37.14836 | -119.69266 | 38231 ft | 419 kts | 332° |
| 2026-04-22 19:55 | 37.20397 | -119.71305 | 38256 ft | 419 kts | 333° |
| 2026-04-22 19:56 | 37.26009 | -119.73365 | 38235 ft | 419 kts | 333° |
| 2026-04-22 19:56 | 37.31616 | -119.75425 | 38238 ft | 419 kts | 333° |
| 2026-04-22 19:57 | 37.37204 | -119.77482 | 38251 ft | 418 kts | 333° |
| 2026-04-22 19:57 | 37.42760 | -119.79532 | 38255 ft | 417 kts | 333° |
| 2026-04-22 19:58 | 37.48337 | -119.81587 | 38245 ft | 417 kts | 333° |
| 2026-04-22 19:58 | 37.53908 | -119.83652 | 38235 ft | 416 kts | 333° |
| 2026-04-22 20:00 | 37.73339 | -119.90869 | 38258 ft | 417 kts | 333° |
| 2026-04-22 20:01 | 37.78939 | -119.92958 | 38238 ft | 421 kts | 334° |
| 2026-04-22 20:01 | 37.84599 | -119.95070 | 38231 ft | 426 kts | 334° |
| 2026-04-22 20:02 | 37.90301 | -119.97200 | 38237 ft | 428 kts | 334° |
| 2026-04-22 20:02 | 37.96034 | -119.99346 | 38234 ft | 431 kts | 334° |
| 2026-04-22 20:03 | 38.01800 | -120.01508 | 38244 ft | 433 kts | 334° |
| 2026-04-22 20:03 | 38.07564 | -120.03693 | 38238 ft | 430 kts | 334° |
| 2026-04-22 20:04 | 38.13286 | -120.05834 | 38283 ft | 431 kts | 335° |
| 2026-04-22 20:04 | 38.19063 | -120.07999 | 38249 ft | 433 kts | 335° |
| 2026-04-22 20:05 | 38.24956 | -120.09859 | 38200 ft | 444 kts | 346° |
| 2026-04-22 20:05 | 38.31148 | -120.10429 | 38264 ft | 446 kts | 348° |
| 2026-04-22 20:06 | 38.37327 | -120.10921 | 38252 ft | 448 kts | 348° |
| 2026-04-22 20:06 | 38.43562 | -120.11448 | 38223 ft | 449 kts | 348° |
| 2026-04-22 20:07 | 38.49798 | -120.12006 | 38242 ft | 449 kts | 348° |
| 2026-04-22 20:07 | 38.56044 | -120.12578 | 38247 ft | 450 kts | 348° |
| 2026-04-22 20:08 | 38.62244 | -120.13145 | 38237 ft | 449 kts | 348° |
| 2026-04-22 20:08 | 38.68467 | -120.13720 | 38224 ft | 447 kts | 348° |
| 2026-04-22 20:09 | 38.74674 | -120.14291 | 38234 ft | 447 kts | 348° |
| 2026-04-22 20:09 | 38.80879 | -120.14859 | 38223 ft | 446 kts | 348° |
| 2026-04-22 20:10 | 38.87059 | -120.15426 | 38220 ft | 445 kts | 348° |
| 2026-04-22 20:10 | 38.93236 | -120.16004 | 38170 ft | 445 kts | 347° |
| 2026-04-22 20:11 | 38.99398 | -120.16644 | 38214 ft | 445 kts | 348° |
| 2026-04-22 20:11 | 39.05512 | -120.17253 | 38251 ft | 442 kts | 348° |
| 2026-04-22 20:12 | 39.11650 | -120.17770 | 38236 ft | 442 kts | 349° |
| 2026-04-22 20:12 | 39.17811 | -120.18295 | 38214 ft | 442 kts | 349° |
| 2026-04-22 20:13 | 39.23965 | -120.18851 | 38204 ft | 444 kts | 348° |
| 2026-04-22 20:13 | 39.30089 | -120.19420 | 38228 ft | 444 kts | 349° |
| 2026-04-22 20:14 | 39.36268 | -120.20001 | 38206 ft | 445 kts | 349° |
| 2026-04-22 20:14 | 39.42454 | -120.20582 | 38214 ft | 445 kts | 349° |
| 2026-04-22 20:15 | 39.48636 | -120.21161 | 38228 ft | 446 kts | 349° |
| 2026-04-22 20:15 | 39.54805 | -120.21741 | 38205 ft | 447 kts | 349° |
| 2026-04-22 20:16 | 39.61013 | -120.22325 | 38205 ft | 447 kts | 349° |
| 2026-04-22 20:16 | 39.67235 | -120.22911 | 38195 ft | 448 kts | 349° |
| 2026-04-22 20:17 | 39.73469 | -120.23502 | 38184 ft | 449 kts | 349° |
| 2026-04-22 20:17 | 39.79671 | -120.24089 | 38172 ft | 449 kts | 349° |
| 2026-04-22 20:18 | 39.85908 | -120.24679 | 38154 ft | 448 kts | 349° |
| 2026-04-22 20:18 | 39.92141 | -120.25271 | 38169 ft | 448 kts | 350° |
| 2026-04-22 20:19 | 39.98309 | -120.25858 | 38158 ft | 447 kts | 350° |
| 2026-04-22 20:19 | 40.04506 | -120.26449 | 38148 ft | 446 kts | 350° |
| 2026-04-22 20:20 | 40.10686 | -120.27040 | 38156 ft | 445 kts | 350° |
| 2026-04-22 20:20 | 40.16859 | -120.27629 | 38151 ft | 444 kts | 350° |
| 2026-04-22 20:21 | 40.23034 | -120.28222 | 38151 ft | 444 kts | 350° |
| 2026-04-22 20:21 | 40.29215 | -120.28816 | 38168 ft | 445 kts | 350° |
| 2026-04-22 20:22 | 40.35361 | -120.29408 | 38165 ft | 446 kts | 350° |
| 2026-04-22 20:22 | 40.41556 | -120.30006 | 38170 ft | 447 kts | 350° |
| 2026-04-22 20:23 | 40.47764 | -120.30606 | 38169 ft | 447 kts | 351° |
| 2026-04-22 20:23 | 40.53983 | -120.31207 | 38157 ft | 448 kts | 351° |
| 2026-04-22 20:24 | 40.60206 | -120.31810 | 38144 ft | 448 kts | 351° |
| 2026-04-22 20:24 | 40.66437 | -120.32415 | 38139 ft | 449 kts | 351° |
| 2026-04-22 20:25 | 40.72632 | -120.33017 | 38145 ft | 449 kts | 351° |
| 2026-04-22 20:25 | 40.78867 | -120.33625 | 38137 ft | 449 kts | 351° |
| 2026-04-22 20:26 | 40.85100 | -120.34235 | 38147 ft | 449 kts | 351° |
| 2026-04-22 20:26 | 40.91332 | -120.34844 | 38152 ft | 449 kts | 351° |
| 2026-04-22 20:27 | 40.97517 | -120.35450 | 38155 ft | 448 kts | 351° |
| 2026-04-22 20:27 | 41.03752 | -120.36062 | 38162 ft | 448 kts | 351° |
| 2026-04-22 20:28 | 41.09979 | -120.36675 | 38174 ft | 448 kts | 351° |
| 2026-04-22 20:28 | 41.16160 | -120.37289 | 38173 ft | 448 kts | 351° |
| 2026-04-22 20:29 | 41.22389 | -120.37931 | 38176 ft | 449 kts | 351° |
| 2026-04-22 20:29 | 41.28617 | -120.38554 | 38174 ft | 449 kts | 351° |
| 2026-04-22 20:30 | 41.34849 | -120.39170 | 38180 ft | 449 kts | 351° |
| 2026-04-22 20:30 | 41.41082 | -120.39783 | 38179 ft | 449 kts | 352° |
| 2026-04-22 20:31 | 41.47323 | -120.40398 | 38183 ft | 449 kts | 352° |
| 2026-04-22 20:31 | 41.53566 | -120.41028 | 38160 ft | 449 kts | 352° |
| 2026-04-22 20:32 | 41.59777 | -120.41654 | 38159 ft | 450 kts | 352° |
| 2026-04-22 20:32 | 41.66025 | -120.42281 | 38153 ft | 450 kts | 352° |
| 2026-04-22 20:33 | 41.72260 | -120.42899 | 38150 ft | 449 kts | 352° |
| 2026-04-22 20:33 | 41.78507 | -120.43524 | 38152 ft | 449 kts | 352° |
| 2026-04-22 20:34 | 41.84704 | -120.44151 | 38149 ft | 449 kts | 352° |
| 2026-04-22 20:34 | 41.90952 | -120.44780 | 38150 ft | 449 kts | 352° |
| 2026-04-22 20:35 | 41.97143 | -120.45403 | 38152 ft | 449 kts | 352° |
| 2026-04-22 20:35 | 42.03376 | -120.46038 | 38143 ft | 449 kts | 352° |
| 2026-04-22 20:36 | 42.09615 | -120.46674 | 38152 ft | 449 kts | 352° |
| 2026-04-22 20:36 | 42.15853 | -120.47304 | 38149 ft | 449 kts | 352° |
| 2026-04-22 20:37 | 42.22077 | -120.47938 | 38133 ft | 450 kts | 352° |
| 2026-04-22 20:37 | 42.28329 | -120.48571 | 38131 ft | 450 kts | 352° |
| 2026-04-22 20:38 | 42.34566 | -120.49213 | 38137 ft | 449 kts | 353° |
| 2026-04-22 20:38 | 42.40792 | -120.49834 | 38116 ft | 448 kts | 352° |
| 2026-04-22 20:39 | 42.46969 | -120.50496 | 38104 ft | 447 kts | 349° |
| 2026-04-22 20:39 | 42.52902 | -120.52706 | 38090 ft | 440 kts | 333° |
| 2026-04-22 20:40 | 42.58462 | -120.56121 | 38118 ft | 438 kts | 333° |
| 2026-04-22 20:40 | 42.63071 | -120.59003 | 38108 ft | 438 kts | 333° |
| 2026-04-22 20:41 | 42.69536 | -120.62980 | 38109 ft | 438 kts | 333° |
| 2026-04-22 20:41 | 42.75113 | -120.66368 | 38078 ft | 438 kts | 334° |
| 2026-04-22 20:42 | 42.79759 | -120.69153 | 38094 ft | 438 kts | 334° |
| 2026-04-22 20:42 | 42.85324 | -120.72544 | 38084 ft | 438 kts | 335° |
| 2026-04-22 20:43 | 42.90887 | -120.75947 | 38089 ft | 437 kts | 333° |
| 2026-04-22 20:43 | 42.96440 | -120.79359 | 38089 ft | 437 kts | 334° |
| 2026-04-22 20:44 | 43.01995 | -120.82776 | 38088 ft | 438 kts | 334° |
| 2026-04-22 20:44 | 43.07525 | -120.86172 | 38081 ft | 438 kts | 335° |
| 2026-04-22 20:45 | 43.13084 | -120.89596 | 38088 ft | 438 kts | 333° |
| 2026-04-22 20:45 | 43.18651 | -120.93033 | 38093 ft | 438 kts | 335° |
| 2026-04-22 20:46 | 43.26981 | -120.98193 | 38093 ft | 437 kts | 334° |
| 2026-04-22 20:46 | 43.32495 | -121.01612 | 38087 ft | 438 kts | 335° |
| 2026-04-22 20:47 | 43.38049 | -121.05065 | 38092 ft | 438 kts | 335° |
| 2026-04-22 20:47 | 43.43610 | -121.08531 | 38110 ft | 439 kts | 335° |
| 2026-04-22 20:48 | 43.49199 | -121.12023 | 38104 ft | 441 kts | 335° |
| 2026-04-22 20:48 | 43.54751 | -121.15496 | 38103 ft | 440 kts | 335° |
| 2026-04-22 20:49 | 43.60325 | -121.18991 | 38102 ft | 439 kts | 335° |
| 2026-04-22 20:49 | 43.65880 | -121.22482 | 38105 ft | 438 kts | 335° |
| 2026-04-22 20:50 | 43.71428 | -121.25974 | 38095 ft | 438 kts | 335° |
| 2026-04-22 20:50 | 43.76962 | -121.29464 | 38094 ft | 437 kts | 335° |
| 2026-04-22 20:51 | 43.82501 | -121.32966 | 38096 ft | 436 kts | 335° |
| 2026-04-22 20:51 | 43.88033 | -121.36469 | 38085 ft | 437 kts | 335° |
| 2026-04-22 20:52 | 43.93529 | -121.39956 | 38077 ft | 437 kts | 335° |
| 2026-04-22 20:52 | 43.99057 | -121.43467 | 38091 ft | 436 kts | 335° |
| 2026-04-22 20:53 | 44.04581 | -121.46987 | 38100 ft | 436 kts | 335° |
| 2026-04-22 20:53 | 44.10069 | -121.50493 | 38092 ft | 436 kts | 336° |
| 2026-04-22 20:54 | 44.15594 | -121.54026 | 38093 ft | 436 kts | 336° |
| 2026-04-22 20:54 | 44.21112 | -121.57564 | 38096 ft | 436 kts | 336° |
| 2026-04-22 20:55 | 44.26640 | -121.61116 | 38099 ft | 437 kts | 335° |
| 2026-04-22 20:55 | 44.32160 | -121.64671 | 38107 ft | 437 kts | 336° |
| 2026-04-22 20:56 | 44.37676 | -121.68229 | 38118 ft | 436 kts | 335° |
| 2026-04-22 20:56 | 44.43185 | -121.71790 | 38109 ft | 436 kts | 335° |
| 2026-04-22 20:57 | 44.48675 | -121.75346 | 38100 ft | 437 kts | 335° |
| 2026-04-22 20:57 | 44.54199 | -121.78931 | 38115 ft | 437 kts | 335° |
| 2026-04-22 20:58 | 44.59681 | -121.82500 | 38119 ft | 436 kts | 335° |
| 2026-04-22 20:58 | 44.65198 | -121.86097 | 38125 ft | 436 kts | 335° |
| 2026-04-22 20:59 | 44.70713 | -121.89700 | 38141 ft | 436 kts | 335° |
| 2026-04-22 20:59 | 44.76216 | -121.93303 | 38161 ft | 436 kts | 335° |
| 2026-04-22 21:00 | 44.81683 | -121.96884 | 38134 ft | 436 kts | 335° |
| 2026-04-22 21:00 | 44.87181 | -122.00501 | 38137 ft | 436 kts | 335° |
| 2026-04-22 21:01 | 44.92691 | -122.04132 | 38155 ft | 436 kts | 335° |
| 2026-04-22 21:01 | 44.98200 | -122.07770 | 38158 ft | 436 kts | 335° |
| 2026-04-22 21:02 | 45.03709 | -122.11415 | 38159 ft | 437 kts | 335° |
| 2026-04-22 21:02 | 45.09206 | -122.15054 | 38175 ft | 436 kts | 335° |
| 2026-04-22 21:03 | 45.14686 | -122.18703 | 38155 ft | 437 kts | 335° |
| 2026-04-22 21:03 | 45.20204 | -122.22376 | 38158 ft | 437 kts | 335° |
| 2026-04-22 21:04 | 45.25717 | -122.26053 | 38154 ft | 438 kts | 335° |
| 2026-04-22 21:04 | 45.31199 | -122.29717 | 38162 ft | 437 kts | 335° |
| 2026-04-22 21:05 | 45.36707 | -122.33408 | 38152 ft | 437 kts | 335° |
| 2026-04-22 21:05 | 45.42216 | -122.37113 | 38155 ft | 438 kts | 335° |
| 2026-04-22 21:06 | 45.47725 | -122.40818 | 38161 ft | 437 kts | 335° |
| 2026-04-22 21:06 | 45.53232 | -122.44534 | 38159 ft | 438 kts | 335° |
| 2026-04-22 21:07 | 45.58722 | -122.48245 | 38153 ft | 438 kts | 335° |
| 2026-04-22 21:07 | 45.64224 | -122.51975 | 38150 ft | 438 kts | 334° |
| 2026-04-22 21:08 | 45.69736 | -122.55718 | 38171 ft | 438 kts | 335° |
| 2026-04-22 21:08 | 45.72490 | -122.57590 | 37910 ft | 441 kts | 335° |
| 2026-04-22 21:08 | 45.75316 | -122.59211 | 37401 ft | 440 kts | 343° |
| 2026-04-22 21:09 | 45.78291 | -122.60193 | 36891 ft | 436 kts | 350° |
| 2026-04-22 21:09 | 45.81283 | -122.60906 | 36291 ft | 435 kts | 351° |
| 2026-04-22 21:09 | 45.84269 | -122.61585 | 35671 ft | 435 kts | 352° |
| 2026-04-22 21:09 | 45.87265 | -122.62275 | 35012 ft | 436 kts | 352° |
| 2026-04-22 21:10 | 45.90267 | -122.62988 | 34347 ft | 437 kts | 352° |
| 2026-04-22 21:10 | 45.93277 | -122.63722 | 33529 ft | 440 kts | 352° |
| 2026-04-22 21:10 | 45.96257 | -122.64460 | 32783 ft | 440 kts | 351° |
| 2026-04-22 21:10 | 45.99270 | -122.65211 | 32164 ft | 437 kts | 351° |
| 2026-04-22 21:11 | 46.02253 | -122.65955 | 31640 ft | 432 kts | 351° |
| 2026-04-22 21:11 | 46.05205 | -122.66690 | 31116 ft | 428 kts | 351° |
| 2026-04-22 21:11 | 46.08122 | -122.67419 | 30615 ft | 423 kts | 351° |
| 2026-04-22 21:11 | 46.11017 | -122.68118 | 30116 ft | 419 kts | 352° |
| 2026-04-22 21:12 | 46.13887 | -122.68704 | 29583 ft | 413 kts | 353° |
| 2026-04-22 21:12 | 46.16718 | -122.69238 | 29055 ft | 408 kts | 353° |
| 2026-04-22 21:12 | 46.19515 | -122.69762 | 28552 ft | 402 kts | 353° |
| 2026-04-22 21:12 | 46.22279 | -122.70291 | 28043 ft | 398 kts | 352° |
| 2026-04-22 21:13 | 46.24976 | -122.70819 | 27543 ft | 393 kts | 352° |
| 2026-04-22 21:13 | 46.27674 | -122.71354 | 27051 ft | 389 kts | 352° |
| 2026-04-22 21:13 | 46.30340 | -122.71884 | 26546 ft | 385 kts | 352° |
| 2026-04-22 21:13 | 46.32996 | -122.72316 | 26074 ft | 381 kts | 356° |
| 2026-04-22 21:14 | 46.35628 | -122.72451 | 25635 ft | 376 kts | 358° |
| 2026-04-22 21:14 | 46.38238 | -122.72526 | 25157 ft | 373 kts | 358° |
| 2026-04-22 21:14 | 46.40826 | -122.72589 | 24677 ft | 370 kts | 358° |
| 2026-04-22 21:14 | 46.43392 | -122.72656 | 24210 ft | 367 kts | 358° |
| 2026-04-22 21:15 | 46.45939 | -122.72731 | 23731 ft | 365 kts | 357° |
| 2026-04-22 21:15 | 46.48467 | -122.72814 | 23198 ft | 362 kts | 357° |
| 2026-04-22 21:15 | 46.50970 | -122.72900 | 22720 ft | 358 kts | 357° |
| 2026-04-22 21:15 | 46.53442 | -122.72988 | 22255 ft | 353 kts | 358° |
| 2026-04-22 21:16 | 46.55884 | -122.73076 | 21794 ft | 349 kts | 358° |
| 2026-04-22 21:16 | 46.58300 | -122.73163 | 21335 ft | 345 kts | 358° |
| 2026-04-22 21:16 | 46.60693 | -122.73250 | 20886 ft | 341 kts | 358° |
| 2026-04-22 21:16 | 46.63026 | -122.73335 | 20442 ft | 338 kts | 358° |
| 2026-04-22 21:17 | 46.65367 | -122.73420 | 20010 ft | 335 kts | 358° |
| 2026-04-22 21:17 | 46.67688 | -122.73504 | 19561 ft | 332 kts | 358° |
| 2026-04-22 21:17 | 46.69995 | -122.73587 | 19120 ft | 329 kts | 358° |
| 2026-04-22 21:17 | 46.72281 | -122.73671 | 18676 ft | 327 kts | 358° |
| 2026-04-22 21:18 | 46.74546 | -122.73753 | 18223 ft | 324 kts | 358° |
| 2026-04-22 21:18 | 46.76772 | -122.73777 | 18054 ft | 313 kts | 4° |
| 2026-04-22 21:18 | 46.78853 | -122.72967 | 17785 ft | 309 kts | 20° |
| 2026-04-22 21:18 | 46.80704 | -122.71375 | 17441 ft | 309 kts | 33° |
| 2026-04-22 21:19 | 46.82383 | -122.69420 | 17031 ft | 308 kts | 36° |
| 2026-04-22 21:19 | 46.84007 | -122.67442 | 16649 ft | 307 kts | 36° |
| 2026-04-22 21:19 | 46.85648 | -122.65458 | 16235 ft | 305 kts | 35° |
| 2026-04-22 21:19 | 46.87311 | -122.63549 | 15841 ft | 303 kts | 34° |
| 2026-04-22 21:20 | 46.88978 | -122.61661 | 15451 ft | 302 kts | 34° |
| 2026-04-22 21:20 | 46.90610 | -122.59807 | 15320 ft | 292 kts | 34° |
| 2026-04-22 21:20 | 46.92191 | -122.58006 | 15176 ft | 283 kts | 34° |
| 2026-04-22 21:20 | 46.93752 | -122.56324 | 15017 ft | 274 kts | 26° |
| 2026-04-22 21:21 | 46.95523 | -122.55358 | 14735 ft | 272 kts | 14° |
| 2026-04-22 21:21 | 46.97357 | -122.54591 | 14448 ft | 277 kts | 14° |
| 2026-04-22 21:21 | 46.99209 | -122.53811 | 14152 ft | 282 kts | 14° |
| 2026-04-22 21:21 | 47.01113 | -122.52997 | 13849 ft | 286 kts | 15° |
| 2026-04-22 21:22 | 47.03033 | -122.52165 | 13507 ft | 289 kts | 15° |
| 2026-04-22 21:22 | 47.04966 | -122.51322 | 13170 ft | 288 kts | 15° |
| 2026-04-22 21:22 | 47.06877 | -122.50485 | 12875 ft | 285 kts | 15° |
| 2026-04-22 21:22 | 47.08783 | -122.49765 | 12555 ft | 280 kts | 8° |
| 2026-04-22 21:23 | 47.10679 | -122.49414 | 12256 ft | 276 kts | 5° |
| 2026-04-22 21:23 | 47.12588 | -122.49123 | 11977 ft | 274 kts | 5° |
| 2026-04-22 21:23 | 47.14481 | -122.48814 | 11691 ft | 274 kts | 5° |
| 2026-04-22 21:23 | 47.16370 | -122.48484 | 11399 ft | 273 kts | 5° |
| 2026-04-22 21:24 | 47.18253 | -122.48144 | 11113 ft | 272 kts | 5° |
| 2026-04-22 21:24 | 47.20133 | -122.47822 | 10851 ft | 271 kts | 4° |
| 2026-04-22 21:24 | 47.22001 | -122.47537 | 10608 ft | 269 kts | 4° |
| 2026-04-22 21:24 | 47.23867 | -122.47258 | 10357 ft | 268 kts | 4° |
| 2026-04-22 21:25 | 47.25725 | -122.46980 | 10112 ft | 267 kts | 4° |
| 2026-04-22 21:25 | 47.27576 | -122.46700 | 9859 ft | 267 kts | 4° |
| 2026-04-22 21:25 | 47.29423 | -122.46419 | 9589 ft | 267 kts | 4° |
| 2026-04-22 21:25 | 47.31246 | -122.46141 | 9339 ft | 265 kts | 4° |
| 2026-04-22 21:26 | 47.33064 | -122.45862 | 9091 ft | 260 kts | 4° |
| 2026-04-22 21:26 | 47.34856 | -122.45587 | 8838 ft | 257 kts | 3° |
| 2026-04-22 21:26 | 47.36628 | -122.45459 | 8613 ft | 253 kts | 359° |
| 2026-04-22 21:26 | 47.38382 | -122.45472 | 8378 ft | 251 kts | 357° |
| 2026-04-22 21:27 | 47.40115 | -122.45492 | 8161 ft | 249 kts | 358° |
| 2026-04-22 21:27 | 47.41844 | -122.45459 | 7863 ft | 250 kts | 360° |
| 2026-04-22 21:27 | 47.43581 | -122.45374 | 7589 ft | 249 kts | 360° |
| 2026-04-22 21:27 | 47.45308 | -122.45277 | 7347 ft | 245 kts | 0° |
| 2026-04-22 21:28 | 47.46420 | -122.45210 | 7193 ft | 236 kts | 360° |
| 2026-04-22 21:28 | 47.48009 | -122.45106 | 6946 ft | 223 kts | 360° |
| 2026-04-22 21:28 | 47.49537 | -122.44995 | 6719 ft | 218 kts | 0° |
| 2026-04-22 21:28 | 47.51056 | -122.44879 | 6470 ft | 221 kts | 1° |
| 2026-04-22 21:29 | 47.52600 | -122.44754 | 6212 ft | 223 kts | 1° |
| 2026-04-22 21:29 | 47.54155 | -122.44634 | 6064 ft | 224 kts | 360° |
| 2026-04-22 21:29 | 47.55719 | -122.44525 | 6030 ft | 229 kts | 0° |
| 2026-04-22 21:29 | 47.57320 | -122.44423 | 5840 ft | 231 kts | 359° |
| 2026-04-22 21:30 | 47.58927 | -122.44306 | 5554 ft | 231 kts | 1° |
| 2026-04-22 21:30 | 47.60513 | -122.44213 | 5325 ft | 226 kts | 1° |
| 2026-04-22 21:30 | 47.62073 | -122.44069 | 5041 ft | 223 kts | 1° |
| 2026-04-22 21:30 | 47.63571 | -122.43715 | 4757 ft | 217 kts | 21° |
| 2026-04-22 21:31 | 47.64695 | -122.42281 | 4492 ft | 216 kts | 58° |
| 2026-04-22 21:31 | 47.65061 | -122.40148 | 4268 ft | 216 kts | 94° |
| 2026-04-22 21:31 | 47.64766 | -122.37956 | 4008 ft | 218 kts | 105° |
| 2026-04-22 21:31 | 47.64372 | -122.35763 | 3784 ft | 223 kts | 115° |
| 2026-04-22 21:32 | 47.63461 | -122.33937 | 3560 ft | 218 kts | 138° |
| 2026-04-22 21:32 | 47.62526 | -122.32186 | 3289 ft | 217 kts | 119° |
| 2026-04-22 21:32 | 47.61926 | -122.30212 | 3206 ft | 201 kts | 124° |
| 2026-04-22 21:32 | 47.60952 | -122.28992 | 3216 ft | 185 kts | 169° |
| 2026-04-22 21:33 | 47.59723 | -122.29204 | 3097 ft | 178 kts | 213° |
| 2026-04-22 21:33 | 47.58704 | -122.30233 | 2878 ft | 179 kts | 209° |
| 2026-04-22 21:33 | 47.57580 | -122.30896 | 2683 ft | 166 kts | 209° |
| 2026-04-22 21:33 | 47.56611 | -122.31676 | 2473 ft | 157 kts | 199° |
| 2026-04-22 21:34 | 47.55501 | -122.31571 | 2302 ft | 166 kts | 176° |
| 2026-04-22 21:34 | 47.54374 | -122.31668 | 2063 ft | 159 kts | 189° |
| 2026-04-22 21:34 | 47.53278 | -122.31732 | 1839 ft | 157 kts | 185° |
| 2026-04-22 21:34 | 47.52190 | -122.31737 | 1632 ft | 159 kts | 184° |
| 2026-04-22 21:35 | 47.51108 | -122.31744 | 1395 ft | 151 kts | 182° |
| 2026-04-22 21:35 | 47.50091 | -122.31753 | 1193 ft | 141 kts | 184° |
| 2026-04-22 21:35 | 47.49090 | -122.31763 | 1001 ft | 146 kts | 183° |
| 2026-04-22 21:35 | 47.48079 | -122.31771 | 779 ft | 144 kts | 181° |
| 2026-04-22 21:36 | 47.47092 | -122.31782 | 591 ft | 136 kts | 180° |
| 2026-04-22 21:36 | 47.46166 | -122.31789 | 427 ft | 132 kts | 183° |
| 2026-04-22 21:36 | 47.45308 | -122.31801 | 393 ft | 113 kts | 184° |
| 2026-04-22 21:36 | 47.44703 | -122.31813 | 393 ft | 52 kts | 180° |
| 2026-04-22 21:37 | 47.44400 | -122.31793 | 393 ft | 41 kts | 165° |
| 2026-04-22 21:37 | 47.44153 | -122.31622 | 393 ft | 36 kts | 151° |
| 2026-04-22 21:37 | 47.43946 | -122.31455 | 393 ft | 32 kts | 150° |
| 2026-04-22 21:37 | 47.43811 | -122.31260 | 393 ft | 26 kts | 100° |
| 2026-04-22 21:38 | 47.43807 | -122.31001 | 393 ft | 24 kts | 91° |
| 2026-04-22 21:38 | 47.43809 | -122.30761 | 393 ft | 23 kts | 91° |
| 2026-04-22 21:38 | 47.43881 | -122.30638 | 393 ft | 18 kts | 1° |
| 2026-04-22 21:38 | 47.44003 | -122.30637 | 393 ft | 17 kts | 0° |
| 2026-04-22 21:39 | 47.44157 | -122.30637 | 393 ft | 28 kts | 360° |
| 2026-04-22 21:39 | 47.44356 | -122.30633 | 393 ft | 28 kts | 1° |
| 2026-04-22 21:39 | 47.44547 | -122.30631 | 393 ft | 26 kts | 0° |
| 2026-04-22 21:39 | 47.44724 | -122.30630 | 393 ft | 22 kts | 0° |
| 2026-04-22 21:40 | 47.44804 | -122.30523 | 393 ft | 18 kts | 92° |
| 2026-04-22 21:40 | 47.44747 | -122.30376 | 393 ft | 17 kts | 128° |
| 2026-04-22 21:40 | 47.44692 | -122.30261 | 393 ft | 8 kts | 125° |
| 2026-04-22 21:40 | 47.44674 | -122.30223 | 393 ft | 4 kts | 122° |
| 2026-04-22 21:41 | 47.44658 | -122.30156 | 393 ft | 10 kts | 104° |
| 2026-04-22 21:41 | 47.44620 | -122.30090 | 393 ft | 4 kts | 143° |
| 2026-04-22 21:41 | 47.44610 | -122.30079 | 393 ft | 0 kts | 140° |